This is the latest recevied weather packets stored in our database for station/object OH2TI. If no packets are shown the sender has not sent any weather packets the latest 1 day(s).
| Time | Temp. | Humidity | Pressure | Rain* | Wind** | Luminosity | Snow |
|---|---|---|---|---|---|---|---|
| 1777990099 | 11.67° C | 33% | 1001.5 hPa | - | 3.13 m/s, 266° | - | - |
| 1777989689 | 12.22° C | 33% | 1001.5 hPa | - | 2.68 m/s, 270° | - | - |
| 1777988999 | 12.22° C | 32% | 1001.5 hPa | - | 2.24 m/s, 276° | - | - |
| 1777988554 | 12.22° C | 33% | 1001.4 hPa | - | 0.89 m/s, 271° | - | - |
| 1777987804 | 11.67° C | 35% | 1001.3 hPa | - | 1.79 m/s, 274° | - | - |
| 1777987324 | 11.11° C | 36% | 1001.4 hPa | - | 2.24 m/s, 279° | - | - |
| 1777986892 | 11.67° C | 38% | 1001.4 hPa | - | 3.13 m/s, 276° | - | - |
| 1777986464 | 11.11° C | 40% | 1001.1 hPa | - | 4.02 m/s, 305° | - | - |
| 1777985959 | 12.22° C | 40% | 1001.2 hPa | - | 1.79 m/s, 312° | - | - |
| 1777985522 | 11.11° C | 41% | 1001.2 hPa | - | 2.68 m/s, 247° | - | - |
| 1777984839 | 10.56° C | 45% | 1001.1 hPa | - | 2.24 m/s, 299° | - | - |
| 1777984311 | 10.56° C | 48% | 1001 hPa | - | 1.79 m/s, 288° | - | - |
| 1777983512 | 10.56° C | 46% | 1001 hPa | - | 3.13 m/s, 315° | - | - |
| 1777982899 | 11.67° C | 41% | 1000.8 hPa | - | 1.79 m/s, 286° | - | - |
| 1777982312 | 11.67° C | 39% | 1000.8 hPa | - | 3.13 m/s, 296° | - | - |
| 1777981686 | 11.67° C | 44% | 1000.6 hPa | - | 3.13 m/s, 309° | - | - |
| 1777980861 | 11.11° C | 43% | 1000.3 hPa | - | 5.36 m/s, 325° | - | - |
| 1777980319 | 12.22° C | 40% | 1000.2 hPa | - | 4.02 m/s, 306° | - | - |
| 1777979722 | 11.67° C | 41% | 1000.2 hPa | - | 2.24 m/s, 288° | - | - |
| 1777978959 | 11.11° C | 46% | 1000.1 hPa | - | 3.58 m/s, 312° | - | - |
| 1777978644 | 11.67° C | 40% | 1000 hPa | - | 2.68 m/s, 288° | - | - |
| 1777978239 | 11.67° C | 43% | 999.8 hPa | - | 2.68 m/s, 322° | - | - |
| 1777977389 | 11.67° C | 44% | 999.5 hPa | - | 4.02 m/s, 326° | - | - |
| 1777976584 | 11.67° C | 46% | 999.5 hPa | - | 2.68 m/s, 296° | - | - |
| 1777976174 | 11.11° C | 47% | 999.3 hPa | - | 3.58 m/s, 313° | - | - |
* Rain since midnight (hover to see other rain measurements)
** Current wind speed in m/s (hover to see current wind gust speed)